createdAt,value
2023-05-14T00:00:19.430Z,23.20
2023-05-14T00:02:47.394Z,22.43
2023-05-14T00:05:15.601Z,22.10
2023-05-14T00:07:43.842Z,25.80
2023-05-14T00:10:11.813Z,20.70
2023-05-14T00:12:39.762Z,29.57
2023-05-14T00:15:09.106Z,21.23
2023-05-14T00:17:38.317Z,24.63
2023-05-14T00:20:09.086Z,24.37
2023-05-14T00:22:40.697Z,25.00
2023-05-14T00:25:13.480Z,23.50
2023-05-14T00:27:41.992Z,22.53
2023-05-14T00:30:10.665Z,20.80
2023-05-14T00:32:38.804Z,22.50
2023-05-14T00:35:07.640Z,21.63
2023-05-14T00:37:36.493Z,21.30
2023-05-14T00:40:07.064Z,20.50
2023-05-14T00:42:35.278Z,22.77
2023-05-14T00:45:03.388Z,19.97
2023-05-14T00:47:31.932Z,22.83
2023-05-14T00:49:59.875Z,23.20
2023-05-14T00:52:28.156Z,23.93
2023-05-14T00:54:57.347Z,21.90
2023-05-14T00:57:25.227Z,22.87
2023-05-14T00:59:53.143Z,27.90
2023-05-14T01:02:21.471Z,23.60
2023-05-14T01:04:50.622Z,24.80
2023-05-14T01:07:54.540Z,24.33
2023-05-14T01:10:39.098Z,31.93
2023-05-14T01:13:47.656Z,29.10
2023-05-14T01:16:20.327Z,25.93
2023-05-14T01:18:52.992Z,23.33
2023-05-14T01:21:44.010Z,25.27
2023-05-14T01:24:11.866Z,29.37
2023-05-14T01:26:39.602Z,25.20
2023-05-14T01:29:31.349Z,26.77
2023-05-14T01:32:03.024Z,25.70
2023-05-14T01:34:33.286Z,26.00
2023-05-14T01:37:04.384Z,28.10
2023-05-14T01:39:37.876Z,26.73
2023-05-14T01:42:08.447Z,25.13
2023-05-14T01:44:37.636Z,32.10
2023-05-14T01:47:06.021Z,29.60
2023-05-14T01:49:33.698Z,31.23
2023-05-14T01:52:01.567Z,31.53
2023-05-14T01:54:29.586Z,28.30
2023-05-14T01:56:57.353Z,29.03
2023-05-14T01:59:25.135Z,29.80
2023-05-14T02:01:53.226Z,26.30
2023-05-14T02:04:21.159Z,32.23
2023-05-14T02:06:48.955Z,24.67
2023-05-14T02:09:17.200Z,29.73
2023-05-14T02:11:44.996Z,29.73
2023-05-14T02:14:12.880Z,26.37
2023-05-14T02:16:40.795Z,27.20
2023-05-14T02:19:08.727Z,26.83
2023-05-14T02:21:36.641Z,28.10
2023-05-14T02:24:04.867Z,25.90
2023-05-14T02:26:32.898Z,33.33
2023-05-14T02:29:00.668Z,26.23
2023-05-14T02:31:28.528Z,31.80
2023-05-14T02:33:56.184Z,29.47
2023-05-14T02:36:23.903Z,24.33
2023-05-14T02:38:51.445Z,31.13
2023-05-14T02:41:19.271Z,27.10
2023-05-14T02:43:47.169Z,27.57
2023-05-14T02:46:15.535Z,29.03
2023-05-14T02:48:43.236Z,29.03
2023-05-14T02:51:11.402Z,26.57
2023-05-14T02:53:39.268Z,24.77
2023-05-14T02:56:08.208Z,26.77
2023-05-14T02:58:35.902Z,27.60
2023-05-14T03:01:03.976Z,26.70
2023-05-14T03:03:33.098Z,26.03
2023-05-14T03:06:01.425Z,25.57
2023-05-14T03:08:31.112Z,28.00
2023-05-14T03:10:59.148Z,27.73
2023-05-14T03:13:27.004Z,29.50
2023-05-14T03:15:55.172Z,30.20
2023-05-14T03:18:23.538Z,31.00
2023-05-14T03:20:51.320Z,34.30
2023-05-14T03:23:19.196Z,31.50
2023-05-14T03:25:47.100Z,30.50
2023-05-14T03:28:14.780Z,30.80
2023-05-14T03:30:42.542Z,30.27
2023-05-14T03:33:12.473Z,31.67
2023-05-14T03:35:40.135Z,30.13
2023-05-14T03:38:08.169Z,30.20
2023-05-14T03:40:36.240Z,28.13
2023-05-14T03:43:04.220Z,29.03
2023-05-14T03:45:34.105Z,28.37
2023-05-14T03:48:02.000Z,28.43
2023-05-14T03:50:30.972Z,25.90
2023-05-14T03:52:59.120Z,27.77
2023-05-14T03:55:26.945Z,30.40
2023-05-14T03:57:54.577Z,28.47
2023-05-14T04:00:22.780Z,28.30
2023-05-14T04:02:52.554Z,30.67
2023-05-14T04:05:20.927Z,31.87
2023-05-14T04:07:48.838Z,25.20
2023-05-14T04:10:16.838Z,26.40
2023-05-14T04:12:44.635Z,26.30
2023-05-14T04:15:13.010Z,27.70
2023-05-14T04:17:40.753Z,27.87
2023-05-14T04:20:10.040Z,32.60
2023-05-14T04:22:37.848Z,26.33
2023-05-14T04:25:06.969Z,27.60
2023-05-14T04:27:35.087Z,29.73
2023-05-14T04:30:03.122Z,28.90
2023-05-14T04:32:30.888Z,29.00
2023-05-14T04:34:58.740Z,30.37
2023-05-14T04:37:26.477Z,35.60
2023-05-14T04:39:54.226Z,24.67
2023-05-14T04:42:21.858Z,23.37
2023-05-14T04:44:49.565Z,23.43
2023-05-14T04:47:17.987Z,25.10
2023-05-14T04:49:45.659Z,25.70
2023-05-14T04:52:13.509Z,22.30
2023-05-14T04:54:41.471Z,22.00
2023-05-14T04:57:09.301Z,22.87
2023-05-14T04:59:37.239Z,22.00
2023-05-14T05:02:05.238Z,24.07
2023-05-14T05:04:33.040Z,23.90
2023-05-14T05:07:01.156Z,24.97
2023-05-14T05:09:28.850Z,22.90
2023-05-14T05:11:56.569Z,28.10
2023-05-14T05:14:24.477Z,21.13
2023-05-14T05:16:52.527Z,22.70
2023-05-14T05:19:26.444Z,21.93
2023-05-14T05:22:00.495Z,22.70
2023-05-14T05:24:28.417Z,23.80
2023-05-14T05:26:56.681Z,24.03
2023-05-14T05:29:25.212Z,23.93
2023-05-14T05:31:53.289Z,22.17
2023-05-14T05:34:21.327Z,22.77
2023-05-14T05:36:49.290Z,22.50
2023-05-14T05:39:17.408Z,22.73
2023-05-14T05:41:45.707Z,21.40
2023-05-14T05:44:13.536Z,23.17
2023-05-14T05:46:41.364Z,19.40
2023-05-14T05:49:09.339Z,20.20
2023-05-14T05:51:36.949Z,18.40
2023-05-14T05:54:04.978Z,17.00
2023-05-14T05:56:32.904Z,16.23
2023-05-14T05:59:00.645Z,15.43
2023-05-14T06:01:28.627Z,15.33
2023-05-14T06:03:57.057Z,17.80
2023-05-14T06:06:34.340Z,15.77
2023-05-14T06:09:02.430Z,16.77
2023-05-14T06:11:30.076Z,15.63
2023-05-14T06:13:57.758Z,14.57
2023-05-14T06:16:25.682Z,13.97
2023-05-14T06:18:54.657Z,14.97
2023-05-14T06:21:22.676Z,15.30
2023-05-14T06:23:50.439Z,15.20
2023-05-14T06:26:18.151Z,13.77
2023-05-14T06:28:46.027Z,15.07
2023-05-14T06:31:13.975Z,13.47
2023-05-14T06:33:41.954Z,12.80
2023-05-14T06:36:10.437Z,11.73
2023-05-14T06:38:38.202Z,12.47
2023-05-14T06:41:05.979Z,11.50
2023-05-14T06:43:33.632Z,15.40
2023-05-14T06:46:01.452Z,12.90
2023-05-14T06:48:29.682Z,10.03
2023-05-14T06:50:57.535Z,9.60
2023-05-14T06:53:25.433Z,11.20
2023-05-14T06:55:53.169Z,9.60
2023-05-14T06:58:20.885Z,12.20
2023-05-14T07:00:49.623Z,9.73
2023-05-14T07:03:17.410Z,8.33
2023-05-14T07:05:46.776Z,8.73
2023-05-14T07:08:14.625Z,8.37
2023-05-14T07:10:42.427Z,9.30
2023-05-14T07:13:10.235Z,8.70
2023-05-14T07:15:38.043Z,8.67
2023-05-14T07:18:05.961Z,8.00
2023-05-14T07:20:34.488Z,9.33
2023-05-14T07:23:02.421Z,7.47
2023-05-14T07:25:30.314Z,7.60
2023-05-14T07:27:58.278Z,7.73
2023-05-14T07:30:26.387Z,7.83
2023-05-14T07:32:54.351Z,10.00
2023-05-14T07:35:23.611Z,7.07
2023-05-14T07:37:51.616Z,10.30
2023-05-14T07:40:19.934Z,6.97
2023-05-14T07:42:47.682Z,6.73
2023-05-14T07:45:15.754Z,7.90
2023-05-14T07:47:48.186Z,6.03
2023-05-14T07:50:17.658Z,7.30
2023-05-14T07:52:50.260Z,7.33
2023-05-14T07:55:22.335Z,7.50
2023-05-14T07:57:52.917Z,5.90
2023-05-14T08:00:21.684Z,5.27
2023-05-14T08:02:58.138Z,5.57
2023-05-14T08:05:26.829Z,4.80
2023-05-14T08:07:54.960Z,9.60
2023-05-14T08:10:23.941Z,10.20
2023-05-14T08:12:53.012Z,5.70
2023-05-14T08:15:21.476Z,6.27
2023-05-14T08:17:51.348Z,5.43
2023-05-14T08:20:20.109Z,5.53
2023-05-14T08:22:48.371Z,4.10
2023-05-14T08:25:17.378Z,5.50
2023-05-14T08:27:45.889Z,4.77
2023-05-14T08:30:25.750Z,8.63
2023-05-14T08:32:54.292Z,6.67
2023-05-14T08:35:23.322Z,5.03
2023-05-14T08:37:52.483Z,4.27
2023-05-14T08:40:22.178Z,4.03
2023-05-14T08:42:53.667Z,4.23
2023-05-14T08:45:34.521Z,6.00
2023-05-14T08:48:09.615Z,5.40
2023-05-14T08:50:38.787Z,3.93
2023-05-14T08:53:11.132Z,4.20
2023-05-14T08:55:43.172Z,6.43
2023-05-14T08:58:14.212Z,5.23
2023-05-14T09:00:42.992Z,3.90
2023-05-14T09:03:14.288Z,4.40
2023-05-14T09:05:46.045Z,5.47
2023-05-14T09:08:15.170Z,3.50
2023-05-14T09:10:43.546Z,3.83
2023-05-14T09:13:12.395Z,4.73
2023-05-14T09:15:41.849Z,6.53
2023-05-14T09:18:11.119Z,3.70
2023-05-14T09:20:42.406Z,3.80
2023-05-14T09:23:10.617Z,4.47
2023-05-14T09:25:42.654Z,5.57
2023-05-14T09:28:11.269Z,4.70
2023-05-14T09:30:39.425Z,4.07
2023-05-14T09:33:10.654Z,6.17
2023-05-14T09:35:41.595Z,4.33
2023-05-14T09:38:10.116Z,4.40
2023-05-14T09:40:38.563Z,6.57
2023-05-14T09:43:07.182Z,4.77
2023-05-14T09:45:36.489Z,6.40
2023-05-14T09:48:05.026Z,7.00
2023-05-14T09:50:33.490Z,5.70
2023-05-14T09:53:02.370Z,6.30
2023-05-14T09:55:32.873Z,3.73
2023-05-14T09:58:02.656Z,5.80
2023-05-14T10:00:34.751Z,10.23
2023-05-14T10:03:13.506Z,5.03
2023-05-14T10:05:43.957Z,6.67
2023-05-14T10:08:28.446Z,4.80
2023-05-14T10:10:59.768Z,4.40
2023-05-14T10:13:42.591Z,6.30
2023-05-14T10:16:35.655Z,4.30
2023-05-14T10:19:13.281Z,4.77
2023-05-14T10:21:46.044Z,4.37
2023-05-14T10:24:15.203Z,4.43
2023-05-14T10:26:45.331Z,4.60
2023-05-14T10:29:14.316Z,5.00
2023-05-14T10:31:55.526Z,4.60
2023-05-14T10:34:46.633Z,6.43
2023-05-14T10:37:30.282Z,3.80
2023-05-14T10:39:59.666Z,5.03
2023-05-14T10:42:36.143Z,5.00
2023-05-14T10:45:12.770Z,4.13
2023-05-14T10:47:47.298Z,5.00
2023-05-14T10:50:17.794Z,4.10
2023-05-14T10:52:46.870Z,5.60
2023-05-14T10:55:17.508Z,4.67
2023-05-14T10:57:47.550Z,5.30
2023-05-14T11:00:17.152Z,5.03
2023-05-14T11:02:46.974Z,7.07
2023-05-14T11:05:17.905Z,4.13
2023-05-14T11:07:50.409Z,4.10
2023-05-14T11:10:26.087Z,4.57
2023-05-14T11:12:54.060Z,4.90
2023-05-14T11:15:26.718Z,7.13
2023-05-14T11:17:55.678Z,6.90
2023-05-14T11:20:24.039Z,4.27
2023-05-14T11:22:52.189Z,3.67
2023-05-14T11:25:21.821Z,7.30
2023-05-14T11:27:51.797Z,5.53
2023-05-14T11:30:22.109Z,4.60
2023-05-14T11:32:51.529Z,3.73
2023-05-14T11:35:19.337Z,6.10
2023-05-14T11:37:53.555Z,5.80
2023-05-14T11:40:22.021Z,5.00
2023-05-14T11:42:53.721Z,8.67
2023-05-14T11:45:30.070Z,8.70
2023-05-14T11:47:58.011Z,5.80
2023-05-14T11:50:25.908Z,4.00
2023-05-14T11:53:05.406Z,5.30
2023-05-14T11:55:37.767Z,4.10
2023-05-14T11:58:05.796Z,5.10
2023-05-14T12:00:34.298Z,11.30
2023-05-14T12:03:02.376Z,4.23
2023-05-14T12:05:30.240Z,4.53
2023-05-14T12:07:58.571Z,3.47
2023-05-14T12:10:29.228Z,4.67
2023-05-14T12:12:57.131Z,4.50
2023-05-14T12:15:26.899Z,4.67
2023-05-14T12:17:54.607Z,3.83
2023-05-14T12:20:24.336Z,4.27
2023-05-14T12:22:52.397Z,4.93
2023-05-14T12:25:20.160Z,6.67
2023-05-14T12:27:47.828Z,3.50
2023-05-14T12:30:21.715Z,4.83
2023-05-14T12:32:53.112Z,5.90
2023-05-14T12:35:23.121Z,6.70
2023-05-14T12:37:51.278Z,3.43
2023-05-14T12:40:19.354Z,4.60
2023-05-14T12:42:47.038Z,4.37
2023-05-14T12:45:14.816Z,4.10
2023-05-14T12:47:42.740Z,4.20
2023-05-14T12:50:11.186Z,4.23
2023-05-14T12:52:40.085Z,3.80
2023-05-14T12:55:09.927Z,3.90
2023-05-14T12:57:39.766Z,12.50
2023-05-14T13:00:13.913Z,5.27
2023-05-14T13:02:44.174Z,5.93
2023-05-14T13:05:15.075Z,3.70
2023-05-14T13:07:43.469Z,7.33
2023-05-14T13:10:12.081Z,4.20
2023-05-14T13:12:40.011Z,5.83
2023-05-14T13:15:09.122Z,6.20
2023-05-14T13:17:37.384Z,6.50
2023-05-14T13:20:06.449Z,7.03
2023-05-14T13:22:34.232Z,8.80
2023-05-14T13:25:03.542Z,4.27
2023-05-14T13:27:31.344Z,6.10
2023-05-14T13:29:59.486Z,8.93
2023-05-14T13:32:27.362Z,5.13
2023-05-14T13:34:55.197Z,6.90
2023-05-14T13:37:24.159Z,4.10
2023-05-14T13:39:51.843Z,5.10
2023-05-14T13:42:19.758Z,6.60
2023-05-14T13:44:47.634Z,4.50
2023-05-14T13:47:15.809Z,4.27
2023-05-14T13:49:44.139Z,4.17
2023-05-14T13:52:11.870Z,3.47
2023-05-14T13:54:39.596Z,3.90
2023-05-14T13:57:07.722Z,5.00
2023-05-14T13:59:36.825Z,3.67
2023-05-14T14:02:06.400Z,8.83
2023-05-14T14:04:35.063Z,5.60
2023-05-14T14:07:02.848Z,4.50
2023-05-14T14:09:35.150Z,5.33
2023-05-14T14:12:07.354Z,6.50
2023-05-14T14:14:35.725Z,4.73
2023-05-14T14:17:03.578Z,4.37
2023-05-14T14:19:31.464Z,4.33
2023-05-14T14:22:03.641Z,5.20
2023-05-14T14:24:31.683Z,3.87
2023-05-14T14:27:02.516Z,5.00
2023-05-14T14:29:31.361Z,3.80
2023-05-14T14:32:00.283Z,5.00
2023-05-14T14:34:28.153Z,6.17
2023-05-14T14:36:55.995Z,3.77
2023-05-14T14:39:26.108Z,4.30
2023-05-14T14:41:54.186Z,3.87
2023-05-14T14:44:24.221Z,4.77
2023-05-14T14:46:53.655Z,8.17
2023-05-14T14:49:22.299Z,7.80
2023-05-14T14:51:50.402Z,5.50
2023-05-14T14:54:19.355Z,4.33
2023-05-14T14:56:49.439Z,3.33
2023-05-14T14:59:19.784Z,4.30
2023-05-14T15:01:48.999Z,6.67
2023-05-14T15:04:17.584Z,4.10
2023-05-14T15:06:45.733Z,6.93
2023-05-14T15:09:13.447Z,3.83
2023-05-14T15:11:41.992Z,4.90
2023-05-14T15:14:09.825Z,3.27
2023-05-14T15:16:37.702Z,5.00
2023-05-14T15:19:05.498Z,8.63
2023-05-14T15:21:33.866Z,5.23
2023-05-14T15:24:05.133Z,4.53
2023-05-14T15:26:33.721Z,3.73
2023-05-14T15:29:01.639Z,3.77
2023-05-14T15:31:29.613Z,6.53
2023-05-14T15:33:57.607Z,3.70
2023-05-14T15:36:25.576Z,4.80
2023-05-14T15:38:53.376Z,3.90
2023-05-14T15:41:21.250Z,3.73
2023-05-14T15:43:49.068Z,7.03
2023-05-14T15:46:16.801Z,3.90
2023-05-14T15:48:44.524Z,3.67
2023-05-14T15:51:13.285Z,4.57
2023-05-14T15:53:41.054Z,3.23
2023-05-14T15:56:09.079Z,3.97
2023-05-14T15:58:36.733Z,4.00
2023-05-14T16:01:04.737Z,3.63
2023-05-14T16:03:32.694Z,3.20
2023-05-14T16:06:00.903Z,4.83
2023-05-14T16:08:28.867Z,5.90
2023-05-14T16:10:56.914Z,3.63
2023-05-14T16:13:24.837Z,5.97
2023-05-14T16:15:52.658Z,3.77
2023-05-14T16:18:20.449Z,5.27
2023-05-14T16:20:48.772Z,4.20
2023-05-14T16:23:16.547Z,4.40
2023-05-14T16:25:44.555Z,5.17
2023-05-14T16:28:13.151Z,10.70
2023-05-14T16:30:40.929Z,5.27
2023-05-14T16:33:08.960Z,5.67
2023-05-14T16:35:36.792Z,4.03
2023-05-14T16:38:04.794Z,4.10
2023-05-14T16:40:32.615Z,6.50
2023-05-14T16:43:00.973Z,4.43
2023-05-14T16:45:28.960Z,3.77
2023-05-14T16:47:56.668Z,6.90
2023-05-14T16:50:24.447Z,4.77
2023-05-14T16:52:52.322Z,4.30
2023-05-14T16:55:20.874Z,5.50
2023-05-14T16:57:48.981Z,6.40
2023-05-14T17:00:18.096Z,5.93
2023-05-14T17:02:49.225Z,5.33
2023-05-14T17:05:17.380Z,4.50
2023-05-14T17:07:46.462Z,6.30
2023-05-14T17:10:14.329Z,5.60
2023-05-14T17:12:42.069Z,3.83
2023-05-14T17:15:13.417Z,7.43
2023-05-14T17:17:41.272Z,4.43
2023-05-14T17:20:10.337Z,4.50
2023-05-14T17:22:38.349Z,5.13
2023-05-14T17:25:07.847Z,5.10
2023-05-14T17:27:36.453Z,4.90
2023-05-14T17:30:06.318Z,4.27
2023-05-14T17:32:34.341Z,8.33
2023-05-14T17:35:02.194Z,6.00
2023-05-14T17:37:30.048Z,3.53
2023-05-14T17:39:57.935Z,4.57
2023-05-14T17:42:25.684Z,3.80
2023-05-14T17:44:53.938Z,3.90
2023-05-14T17:47:22.138Z,5.43
2023-05-14T17:49:51.024Z,5.90
2023-05-14T17:52:19.347Z,4.83
2023-05-14T17:54:47.018Z,4.43
2023-05-14T17:57:15.915Z,4.60
2023-05-14T17:59:43.743Z,5.70
2023-05-14T18:02:11.472Z,4.77
2023-05-14T18:04:39.413Z,4.37
2023-05-14T18:07:07.665Z,5.23
2023-05-14T18:09:35.595Z,4.47
2023-05-14T18:12:03.441Z,4.53
2023-05-14T18:14:31.216Z,7.50
2023-05-14T18:16:59.064Z,6.67
2023-05-14T18:19:26.928Z,5.47
2023-05-14T18:21:55.664Z,7.00
2023-05-14T18:24:23.395Z,6.27
2023-05-14T18:26:51.405Z,5.60
2023-05-14T18:29:19.384Z,6.60
2023-05-14T18:31:47.606Z,6.90
2023-05-14T18:34:15.443Z,7.20
2023-05-14T18:36:43.709Z,6.83
2023-05-14T18:39:11.543Z,6.97
2023-05-14T18:41:39.250Z,5.40
2023-05-14T18:44:07.189Z,8.17
2023-05-14T18:46:35.296Z,5.60
2023-05-14T18:49:03.390Z,7.00
2023-05-14T18:51:31.090Z,6.27
2023-05-14T18:53:58.891Z,6.67
2023-05-14T18:56:28.867Z,4.70
2023-05-14T18:58:57.280Z,4.50
2023-05-14T19:01:25.874Z,5.70
2023-05-14T19:03:54.452Z,6.80
2023-05-14T19:06:22.586Z,5.27
2023-05-14T19:08:50.502Z,9.07
2023-05-14T19:11:19.872Z,5.87
2023-05-14T19:13:49.726Z,8.27
2023-05-14T19:16:17.782Z,5.93
2023-05-14T19:18:45.881Z,8.30
2023-05-14T19:21:15.389Z,6.20
2023-05-14T19:23:43.634Z,9.80
2023-05-14T19:26:11.465Z,7.70
2023-05-14T19:28:39.540Z,5.93
2023-05-14T19:31:07.451Z,5.17
2023-05-14T19:33:35.206Z,5.63
2023-05-14T19:36:03.265Z,6.17
2023-05-14T19:38:31.161Z,5.70
2023-05-14T19:40:58.962Z,4.33
2023-05-14T19:43:28.109Z,4.90
2023-05-14T19:45:55.870Z,5.90
2023-05-14T19:48:23.612Z,4.83
2023-05-14T19:50:52.325Z,4.23
2023-05-14T19:53:20.020Z,6.03
2023-05-14T19:55:47.834Z,5.33
2023-05-14T19:58:15.679Z,5.17
2023-05-14T20:00:43.442Z,5.00
2023-05-14T20:03:11.469Z,4.93
2023-05-14T20:05:39.414Z,5.53
2023-05-14T20:08:08.226Z,4.80
2023-05-14T20:10:35.997Z,8.57
2023-05-14T20:13:04.335Z,6.23
2023-05-14T20:15:32.112Z,5.90
2023-05-14T20:18:00.417Z,5.20
2023-05-14T20:20:32.756Z,8.03
2023-05-14T20:23:01.172Z,5.47
2023-05-14T20:25:29.450Z,7.20
2023-05-14T20:27:57.439Z,5.47
2023-05-14T20:30:25.662Z,6.00
2023-05-14T20:32:53.687Z,11.03
2023-05-14T20:35:21.621Z,5.77
2023-05-14T20:37:49.726Z,8.00
2023-05-14T20:40:17.948Z,7.60
2023-05-14T20:42:45.874Z,11.57
2023-05-14T20:45:13.714Z,8.00
2023-05-14T20:47:41.455Z,8.60
2023-05-14T20:50:09.912Z,5.90
2023-05-14T20:52:37.594Z,7.00
2023-05-14T20:55:07.774Z,9.73
2023-05-14T20:57:35.780Z,12.80
2023-05-14T21:00:08.957Z,8.67
2023-05-14T21:02:37.707Z,8.27
2023-05-14T21:05:07.192Z,7.93
2023-05-14T21:07:36.622Z,11.87
2023-05-14T21:10:05.517Z,12.47
2023-05-14T21:12:33.382Z,9.73
2023-05-14T21:15:01.280Z,10.20
2023-05-14T21:17:29.304Z,9.57
2023-05-14T21:19:56.909Z,10.03
2023-05-14T21:22:24.971Z,9.40
2023-05-14T21:24:52.727Z,7.07
2023-05-14T21:27:20.632Z,7.67
2023-05-14T21:29:48.364Z,8.30
2023-05-14T21:32:16.247Z,8.00
2023-05-14T21:34:44.226Z,8.00
2023-05-14T21:37:12.196Z,7.93
2023-05-14T21:39:39.952Z,7.40
2023-05-14T21:42:08.750Z,6.90
2023-05-14T21:44:36.560Z,8.00
2023-05-14T21:47:05.614Z,7.13
2023-05-14T21:49:33.354Z,10.63
2023-05-14T21:52:01.305Z,10.00
2023-05-14T21:54:29.095Z,9.93
2023-05-14T21:56:56.971Z,9.67
2023-05-14T21:59:25.043Z,14.17
2023-05-14T22:02:06.265Z,12.50
2023-05-14T22:04:35.793Z,10.53
2023-05-14T22:07:04.434Z,8.67
2023-05-14T22:09:32.236Z,8.83
2023-05-14T22:12:00.472Z,10.73
2023-05-14T22:14:28.341Z,10.17
2023-05-14T22:16:57.052Z,8.97
2023-05-14T22:19:26.989Z,9.50
2023-05-14T22:21:55.529Z,11.20
2023-05-14T22:24:23.208Z,11.67
2023-05-14T22:26:51.101Z,12.93
2023-05-14T22:29:19.008Z,14.27
2023-05-14T22:31:46.922Z,9.80
2023-05-14T22:34:14.753Z,13.43
2023-05-14T22:36:42.626Z,13.23
2023-05-14T22:39:12.149Z,13.07
2023-05-14T22:41:41.183Z,12.40
2023-05-14T22:44:08.892Z,16.07
2023-05-14T22:46:36.875Z,13.00
2023-05-14T22:49:04.673Z,19.07
2023-05-14T22:51:32.432Z,15.37
2023-05-14T22:54:00.266Z,14.80
2023-05-14T22:56:29.158Z,16.77
2023-05-14T22:59:00.495Z,20.07
2023-05-14T23:01:31.331Z,20.93
2023-05-14T23:04:00.664Z,19.80
2023-05-14T23:06:28.414Z,17.27
2023-05-14T23:08:56.369Z,15.23
2023-05-14T23:11:26.648Z,19.80
2023-05-14T23:13:54.797Z,16.57
2023-05-14T23:16:22.674Z,20.63
2023-05-14T23:18:51.004Z,21.63
2023-05-14T23:21:19.390Z,20.80
2023-05-14T23:23:48.562Z,21.40
2023-05-14T23:26:16.568Z,20.60
2023-05-14T23:28:44.420Z,20.93
2023-05-14T23:31:12.244Z,23.67
2023-05-14T23:33:40.113Z,21.47
2023-05-14T23:36:08.998Z,22.47
2023-05-14T23:38:37.239Z,27.30
2023-05-14T23:41:05.092Z,24.17
2023-05-14T23:43:33.969Z,27.03
2023-05-14T23:46:02.133Z,32.47
2023-05-14T23:48:30.118Z,35.77
2023-05-14T23:50:58.039Z,36.70
2023-05-14T23:53:25.869Z,38.53
2023-05-14T23:55:53.868Z,50.30
2023-05-14T23:58:21.888Z,30.73
